AAL3316 KMIA-TNCM
Flight info
| Callsign | AAL3316 |
|---|---|
| Flight time | 2h 26m |
| Altitude | 37000 |
| Route | KLADA2 BITAC Y290 SLUGO |
| Aircraft | B38M/M-SDE1FGHILORVWXY/HB1 |
Departure
| Time | 2026-05-05 18:02 |
|---|---|
| Airport | Miami International Airport (KMIA) |
Arrival
| Time | 2026-05-05 20:29 |
|---|---|
| Airport | Princess Juliana International Airport (TNCM) |
| Time | Latitude | Longitude | Altitude | Speed | Heading |
|---|---|---|---|---|---|
| 2026-05-05 17:40 | 25.79458 | -80.28122 | 17 ft | 0 kts | 352° |
| 2026-05-05 17:52 | 25.79437 | -80.28118 | 19 ft | 4 kts | 344° |
| 2026-05-05 17:52 | 25.79413 | -80.28106 | 18 ft | 4 kts | 320° |
| 2026-05-05 17:52 | 25.79401 | -80.28086 | 20 ft | 4 kts | 258° |
| 2026-05-05 17:53 | 25.79403 | -80.28080 | 21 ft | 2 kts | 244° |
| 2026-05-05 17:55 | 25.79400 | -80.28086 | 20 ft | 2 kts | 243° |
| 2026-05-05 17:55 | 25.79392 | -80.28106 | 18 ft | 4 kts | 245° |
| 2026-05-05 17:56 | 25.79387 | -80.28118 | 17 ft | 2 kts | 245° |
| 2026-05-05 17:56 | 25.79379 | -80.28137 | 17 ft | 4 kts | 244° |
| 2026-05-05 17:56 | 25.79368 | -80.28172 | 17 ft | 6 kts | 260° |
| 2026-05-05 17:56 | 25.79359 | -80.28227 | 17 ft | 9 kts | 252° |
| 2026-05-05 17:57 | 25.79318 | -80.28294 | 18 ft | 12 kts | 224° |
| 2026-05-05 17:57 | 25.79254 | -80.28359 | 17 ft | 13 kts | 222° |
| 2026-05-05 17:57 | 25.79240 | -80.28451 | 17 ft | 14 kts | 296° |
| 2026-05-05 17:57 | 25.79291 | -80.28551 | 17 ft | 16 kts | 300° |
| 2026-05-05 17:58 | 25.79350 | -80.28667 | 17 ft | 18 kts | 299° |
| 2026-05-05 17:58 | 25.79415 | -80.28796 | 17 ft | 20 kts | 301° |
| 2026-05-05 17:58 | 25.79487 | -80.28934 | 17 ft | 21 kts | 299° |
| 2026-05-05 17:58 | 25.79563 | -80.29083 | 17 ft | 23 kts | 300° |
| 2026-05-05 17:59 | 25.79641 | -80.29237 | 17 ft | 22 kts | 299° |
| 2026-05-05 17:59 | 25.79721 | -80.29391 | 17 ft | 24 kts | 299° |
| 2026-05-05 17:59 | 25.79802 | -80.29552 | 17 ft | 21 kts | 300° |
| 2026-05-05 17:59 | 25.79844 | -80.29634 | 17 ft | 5 kts | 299° |
| 2026-05-05 18:00 | 25.79867 | -80.29678 | 17 ft | 8 kts | 300° |
| 2026-05-05 18:00 | 25.79895 | -80.29739 | 17 ft | 11 kts | 295° |
| 2026-05-05 18:00 | 25.79935 | -80.29836 | 17 ft | 17 kts | 294° |
| 2026-05-05 18:00 | 25.79969 | -80.29936 | 17 ft | 8 kts | 287° |
| 2026-05-05 18:01 | 25.79976 | -80.29963 | 16 ft | 4 kts | 286° |
| 2026-05-05 18:01 | 25.79992 | -80.30026 | 16 ft | 15 kts | 285° |
| 2026-05-05 18:01 | 25.80023 | -80.30122 | 17 ft | 13 kts | 315° |
| 2026-05-05 18:01 | 25.80073 | -80.30099 | 16 ft | 10 kts | 87° |
| 2026-05-05 18:02 | 25.80077 | -80.29976 | 15 ft | 24 kts | 87° |
| 2026-05-05 18:02 | 25.80095 | -80.29562 | 16 ft | 93 kts | 87° |
| 2026-05-05 18:02 | 25.80138 | -80.28565 | 45 ft | 161 kts | 87° |
| 2026-05-05 18:02 | 25.80185 | -80.27233 | 678 ft | 179 kts | 86° |
| 2026-05-05 18:03 | 25.80198 | -80.25792 | 1457 ft | 199 kts | 92° |
| 2026-05-05 18:03 | 25.79871 | -80.24243 | 2409 ft | 216 kts | 110° |
| 2026-05-05 18:03 | 25.79192 | -80.22658 | 3201 ft | 243 kts | 118° |
| 2026-05-05 18:03 | 25.78320 | -80.20958 | 3944 ft | 261 kts | 119° |
| 2026-05-05 18:04 | 25.77401 | -80.19141 | 4674 ft | 278 kts | 119° |
| 2026-05-05 18:04 | 25.76456 | -80.17270 | 5743 ft | 277 kts | 120° |
| 2026-05-05 18:04 | 25.75504 | -80.15371 | 6661 ft | 286 kts | 120° |
| 2026-05-05 18:04 | 25.74531 | -80.13417 | 7540 ft | 291 kts | 120° |
| 2026-05-05 18:05 | 25.73559 | -80.11449 | 8398 ft | 299 kts | 118° |
| 2026-05-05 18:05 | 25.72793 | -80.09281 | 9283 ft | 305 kts | 110° |
| 2026-05-05 18:05 | 25.72093 | -80.07035 | 10121 ft | 311 kts | 111° |
| 2026-05-05 18:05 | 25.71347 | -80.04720 | 10671 ft | 328 kts | 111° |
| 2026-05-05 18:06 | 25.70548 | -80.02283 | 11137 ft | 344 kts | 111° |
| 2026-05-05 18:06 | 25.69987 | -80.00588 | 11548 ft | 352 kts | 111° |
| 2026-05-05 18:06 | 25.68857 | -79.97196 | 12595 ft | 357 kts | 111° |
| 2026-05-05 18:06 | 25.67987 | -79.94592 | 13298 ft | 363 kts | 111° |
| 2026-05-05 18:07 | 25.67103 | -79.91953 | 14031 ft | 367 kts | 111° |
| 2026-05-05 18:07 | 25.66210 | -79.89285 | 14664 ft | 372 kts | 111° |
| 2026-05-05 18:07 | 25.65301 | -79.86576 | 15306 ft | 376 kts | 111° |
| 2026-05-05 18:07 | 25.64384 | -79.83845 | 15925 ft | 381 kts | 110° |
| 2026-05-05 18:08 | 25.63456 | -79.81082 | 16537 ft | 385 kts | 110° |
| 2026-05-05 18:08 | 25.62512 | -79.78278 | 17149 ft | 390 kts | 110° |
| 2026-05-05 18:08 | 25.61564 | -79.75459 | 17743 ft | 394 kts | 110° |
| 2026-05-05 18:08 | 25.60600 | -79.72594 | 18333 ft | 398 kts | 110° |
| 2026-05-05 18:09 | 25.59589 | -79.69719 | 18817 ft | 402 kts | 112° |
| 2026-05-05 18:09 | 25.58481 | -79.66855 | 19308 ft | 406 kts | 112° |
| 2026-05-05 18:09 | 25.57386 | -79.63999 | 19794 ft | 409 kts | 112° |
| 2026-05-05 18:09 | 25.56271 | -79.61081 | 20288 ft | 413 kts | 112° |
| 2026-05-05 18:10 | 25.55147 | -79.58139 | 20756 ft | 417 kts | 113° |
| 2026-05-05 18:10 | 25.54013 | -79.55168 | 21236 ft | 420 kts | 113° |
| 2026-05-05 18:10 | 25.52870 | -79.52177 | 21695 ft | 424 kts | 113° |
| 2026-05-05 18:10 | 25.51721 | -79.49172 | 22158 ft | 427 kts | 113° |
| 2026-05-05 18:11 | 25.50556 | -79.46125 | 22620 ft | 431 kts | 113° |
| 2026-05-05 18:11 | 25.49383 | -79.43063 | 23073 ft | 434 kts | 113° |
| 2026-05-05 18:11 | 25.48201 | -79.39978 | 23520 ft | 438 kts | 114° |
| 2026-05-05 18:11 | 25.47006 | -79.36860 | 23896 ft | 441 kts | 113° |
| 2026-05-05 18:12 | 25.45805 | -79.33730 | 24279 ft | 444 kts | 113° |
| 2026-05-05 18:12 | 25.44594 | -79.30575 | 24665 ft | 446 kts | 113° |
| 2026-05-05 18:12 | 25.43376 | -79.27406 | 25046 ft | 449 kts | 113° |
| 2026-05-05 18:12 | 25.42157 | -79.24234 | 25418 ft | 452 kts | 113° |
| 2026-05-05 18:13 | 25.40922 | -79.21028 | 25783 ft | 454 kts | 113° |
| 2026-05-05 18:13 | 25.39680 | -79.17802 | 26145 ft | 457 kts | 112° |
| 2026-05-05 18:13 | 25.38430 | -79.14559 | 26502 ft | 460 kts | 112° |
| 2026-05-05 18:13 | 25.37187 | -79.11338 | 26851 ft | 462 kts | 112° |
| 2026-05-05 18:14 | 25.35905 | -79.08017 | 27207 ft | 465 kts | 112° |
| 2026-05-05 18:14 | 25.34632 | -79.04724 | 27563 ft | 468 kts | 112° |
| 2026-05-05 18:14 | 25.33348 | -79.01403 | 27888 ft | 471 kts | 112° |
| 2026-05-05 18:14 | 25.32065 | -78.98087 | 28219 ft | 473 kts | 112° |
| 2026-05-05 18:15 | 25.30766 | -78.94735 | 28552 ft | 476 kts | 112° |
| 2026-05-05 18:15 | 25.29476 | -78.91405 | 28876 ft | 478 kts | 112° |
| 2026-05-05 18:15 | 25.28144 | -78.87972 | 29209 ft | 481 kts | 112° |
| 2026-05-05 18:15 | 25.26842 | -78.84619 | 29524 ft | 483 kts | 112° |
| 2026-05-05 18:16 | 25.25512 | -78.81196 | 29863 ft | 486 kts | 112° |
| 2026-05-05 18:16 | 25.24174 | -78.77755 | 30159 ft | 488 kts | 112° |
| 2026-05-05 18:16 | 25.22829 | -78.74298 | 30418 ft | 491 kts | 112° |
| 2026-05-05 18:16 | 25.21482 | -78.70840 | 30666 ft | 494 kts | 111° |
| 2026-05-05 18:17 | 25.20122 | -78.67352 | 30916 ft | 496 kts | 111° |
| 2026-05-05 18:17 | 25.18758 | -78.63854 | 31210 ft | 497 kts | 111° |
| 2026-05-05 18:17 | 25.17384 | -78.60336 | 31458 ft | 500 kts | 111° |
| 2026-05-05 18:17 | 25.16002 | -78.56799 | 31694 ft | 503 kts | 111° |
| 2026-05-05 18:18 | 25.14615 | -78.53252 | 31947 ft | 505 kts | 111° |
| 2026-05-05 18:18 | 25.13216 | -78.49680 | 32179 ft | 508 kts | 110° |
| 2026-05-05 18:18 | 25.11819 | -78.46113 | 32418 ft | 510 kts | 110° |
| 2026-05-05 18:18 | 25.10407 | -78.42512 | 32655 ft | 513 kts | 110° |
| 2026-05-05 18:19 | 25.08987 | -78.38895 | 32894 ft | 515 kts | 110° |
| 2026-05-05 18:19 | 25.07560 | -78.35262 | 33131 ft | 517 kts | 110° |
| 2026-05-05 18:19 | 25.06125 | -78.31610 | 33363 ft | 520 kts | 110° |
| 2026-05-05 18:19 | 25.04684 | -78.27949 | 33598 ft | 522 kts | 109° |
| 2026-05-05 18:20 | 25.03234 | -78.24267 | 33834 ft | 524 kts | 109° |
| 2026-05-05 18:20 | 25.01787 | -78.20595 | 34082 ft | 526 kts | 109° |
| 2026-05-05 18:20 | 25.00324 | -78.16889 | 34355 ft | 526 kts | 109° |
| 2026-05-05 18:20 | 24.98866 | -78.13196 | 34627 ft | 525 kts | 109° |
| 2026-05-05 18:21 | 24.97408 | -78.09506 | 34907 ft | 525 kts | 109° |
| 2026-05-05 18:21 | 24.95952 | -78.05824 | 35211 ft | 524 kts | 109° |
| 2026-05-05 18:21 | 24.94495 | -78.02143 | 35468 ft | 524 kts | 109° |
| 2026-05-05 18:21 | 24.93040 | -77.98471 | 35729 ft | 523 kts | 109° |
| 2026-05-05 18:22 | 24.91589 | -77.94811 | 35990 ft | 523 kts | 109° |
| 2026-05-05 18:22 | 24.90133 | -77.91142 | 36195 ft | 523 kts | 109° |
| 2026-05-05 18:22 | 24.88674 | -77.87469 | 36414 ft | 523 kts | 109° |
| 2026-05-05 18:22 | 24.87213 | -77.83795 | 36635 ft | 523 kts | 109° |
| 2026-05-05 18:23 | 24.85756 | -77.80132 | 36848 ft | 523 kts | 109° |
| 2026-05-05 18:23 | 24.84296 | -77.76467 | 37032 ft | 523 kts | 109° |
| 2026-05-05 18:23 | 24.82840 | -77.72810 | 37054 ft | 523 kts | 109° |
| 2026-05-05 18:24 | 24.79945 | -77.65554 | 37043 ft | 519 kts | 109° |
| 2026-05-05 18:24 | 24.77041 | -77.58283 | 37048 ft | 519 kts | 109° |
| 2026-05-05 18:25 | 24.73926 | -77.51088 | 37051 ft | 523 kts | 113° |
| 2026-05-05 18:25 | 24.70643 | -77.43962 | 37032 ft | 523 kts | 112° |
| 2026-05-05 18:26 | 24.67377 | -77.36816 | 37040 ft | 523 kts | 112° |
| 2026-05-05 18:26 | 24.64110 | -77.29675 | 37039 ft | 523 kts | 112° |
| 2026-05-05 18:27 | 24.60842 | -77.22542 | 37060 ft | 523 kts | 112° |
| 2026-05-05 18:27 | 24.57559 | -77.15390 | 37051 ft | 524 kts | 112° |
| 2026-05-05 18:28 | 24.52632 | -77.04676 | 37038 ft | 524 kts | 112° |
| 2026-05-05 18:28 | 24.49348 | -76.97547 | 37039 ft | 524 kts | 112° |
| 2026-05-05 18:29 | 24.46054 | -76.90408 | 37043 ft | 524 kts | 112° |
| 2026-05-05 18:29 | 24.42754 | -76.83266 | 37026 ft | 524 kts | 113° |
| 2026-05-05 18:30 | 24.39458 | -76.76147 | 37036 ft | 523 kts | 113° |
| 2026-05-05 18:30 | 24.36167 | -76.69046 | 37039 ft | 523 kts | 113° |
| 2026-05-05 18:31 | 24.32887 | -76.61983 | 37039 ft | 523 kts | 113° |
| 2026-05-05 18:31 | 24.29588 | -76.54887 | 37039 ft | 523 kts | 113° |
| 2026-05-05 18:32 | 24.26285 | -76.47796 | 37048 ft | 523 kts | 114° |
| 2026-05-05 18:32 | 24.22981 | -76.40708 | 37045 ft | 522 kts | 114° |
| 2026-05-05 18:33 | 24.19672 | -76.33625 | 37037 ft | 522 kts | 114° |
| 2026-05-05 18:33 | 24.16357 | -76.26539 | 37036 ft | 522 kts | 114° |
| 2026-05-05 18:34 | 24.13048 | -76.19476 | 37040 ft | 522 kts | 114° |
| 2026-05-05 18:34 | 24.09730 | -76.12404 | 37049 ft | 522 kts | 114° |
| 2026-05-05 18:35 | 24.06417 | -76.05353 | 37045 ft | 520 kts | 114° |
| 2026-05-05 18:35 | 24.03110 | -75.98325 | 37043 ft | 521 kts | 114° |
| 2026-05-05 18:36 | 23.99791 | -75.91283 | 37043 ft | 521 kts | 114° |
| 2026-05-05 18:36 | 23.97032 | -75.85438 | 37039 ft | 521 kts | 114° |
| 2026-05-05 18:37 | 23.93169 | -75.77263 | 37047 ft | 521 kts | 115° |
| 2026-05-05 18:37 | 23.89851 | -75.70255 | 37038 ft | 519 kts | 115° |
| 2026-05-05 18:38 | 23.87067 | -75.64384 | 37047 ft | 519 kts | 115° |
| 2026-05-05 18:38 | 23.83747 | -75.57388 | 37048 ft | 519 kts | 115° |
| 2026-05-05 18:39 | 23.80445 | -75.50443 | 37040 ft | 519 kts | 115° |
| 2026-05-05 18:39 | 23.77114 | -75.43445 | 37050 ft | 519 kts | 115° |
| 2026-05-05 18:40 | 23.73786 | -75.36465 | 37052 ft | 517 kts | 116° |
| 2026-05-05 18:40 | 23.70470 | -75.29519 | 37051 ft | 516 kts | 116° |
| 2026-05-05 18:41 | 23.67154 | -75.22584 | 37048 ft | 516 kts | 116° |
| 2026-05-05 18:41 | 23.63834 | -75.15651 | 37038 ft | 515 kts | 116° |
| 2026-05-05 18:42 | 23.60515 | -75.08729 | 37046 ft | 514 kts | 116° |
| 2026-05-05 18:42 | 23.57226 | -75.01880 | 37046 ft | 511 kts | 116° |
| 2026-05-05 18:43 | 23.53934 | -74.95034 | 37045 ft | 510 kts | 116° |
| 2026-05-05 18:43 | 23.50636 | -74.88184 | 37049 ft | 510 kts | 116° |
| 2026-05-05 18:44 | 23.47338 | -74.81346 | 37048 ft | 510 kts | 116° |
| 2026-05-05 18:44 | 23.44038 | -74.74511 | 37047 ft | 510 kts | 116° |
| 2026-05-05 18:45 | 23.40728 | -74.67666 | 37044 ft | 510 kts | 116° |
| 2026-05-05 18:45 | 23.37417 | -74.60828 | 37046 ft | 510 kts | 116° |
| 2026-05-05 18:46 | 23.34134 | -74.54060 | 37045 ft | 510 kts | 116° |
| 2026-05-05 18:46 | 23.30819 | -74.47234 | 37045 ft | 510 kts | 116° |
| 2026-05-05 18:47 | 23.27501 | -74.40409 | 37020 ft | 510 kts | 116° |
| 2026-05-05 18:47 | 23.24185 | -74.33600 | 37050 ft | 508 kts | 117° |
| 2026-05-05 18:48 | 23.20893 | -74.26848 | 37048 ft | 505 kts | 117° |
| 2026-05-05 18:48 | 23.17598 | -74.20100 | 37053 ft | 505 kts | 117° |
| 2026-05-05 18:49 | 23.14297 | -74.13349 | 37046 ft | 506 kts | 117° |
| 2026-05-05 18:49 | 23.11001 | -74.06617 | 37048 ft | 506 kts | 117° |
| 2026-05-05 18:50 | 23.07716 | -73.99917 | 37045 ft | 506 kts | 117° |
| 2026-05-05 18:50 | 23.04423 | -73.93209 | 37046 ft | 501 kts | 117° |
| 2026-05-05 18:51 | 23.01140 | -73.86532 | 37047 ft | 501 kts | 117° |
| 2026-05-05 18:51 | 22.97862 | -73.79873 | 37047 ft | 501 kts | 117° |
| 2026-05-05 18:52 | 22.94573 | -73.73200 | 37051 ft | 501 kts | 117° |
| 2026-05-05 18:52 | 22.91283 | -73.66535 | 37051 ft | 501 kts | 118° |
| 2026-05-05 18:53 | 22.87999 | -73.59890 | 37031 ft | 497 kts | 118° |
| 2026-05-05 18:53 | 22.84738 | -73.53301 | 37059 ft | 496 kts | 118° |
| 2026-05-05 18:54 | 22.81474 | -73.46713 | 37054 ft | 496 kts | 118° |
| 2026-05-05 18:54 | 22.78205 | -73.40125 | 37042 ft | 496 kts | 118° |
| 2026-05-05 18:55 | 22.74937 | -73.33549 | 37049 ft | 496 kts | 118° |
| 2026-05-05 18:55 | 22.71683 | -73.27009 | 37058 ft | 495 kts | 118° |
| 2026-05-05 18:56 | 22.68422 | -73.20460 | 37045 ft | 493 kts | 118° |
| 2026-05-05 18:56 | 22.65162 | -73.13924 | 37050 ft | 494 kts | 119° |
| 2026-05-05 18:57 | 22.61903 | -73.07399 | 37050 ft | 494 kts | 119° |
| 2026-05-05 18:57 | 22.58638 | -73.00868 | 37051 ft | 493 kts | 119° |
| 2026-05-05 18:58 | 22.55363 | -72.94328 | 37053 ft | 493 kts | 119° |
| 2026-05-05 18:58 | 22.52101 | -72.87823 | 37047 ft | 493 kts | 119° |
| 2026-05-05 18:59 | 22.48855 | -72.81356 | 37025 ft | 493 kts | 119° |
| 2026-05-05 18:59 | 22.45577 | -72.74833 | 37058 ft | 495 kts | 119° |
| 2026-05-05 19:00 | 22.42287 | -72.68295 | 37049 ft | 494 kts | 119° |
| 2026-05-05 19:00 | 22.39004 | -72.61780 | 37053 ft | 494 kts | 119° |
| 2026-05-05 19:01 | 22.35717 | -72.55265 | 37048 ft | 493 kts | 120° |
| 2026-05-05 19:01 | 22.32436 | -72.48770 | 37049 ft | 493 kts | 120° |
| 2026-05-05 19:02 | 22.29151 | -72.42276 | 37047 ft | 493 kts | 120° |
| 2026-05-05 19:02 | 22.25869 | -72.35796 | 37049 ft | 493 kts | 120° |
| 2026-05-05 19:03 | 22.22576 | -72.29302 | 37049 ft | 493 kts | 120° |
| 2026-05-05 19:03 | 22.19286 | -72.22821 | 37049 ft | 491 kts | 120° |
| 2026-05-05 19:04 | 22.16008 | -72.16372 | 37046 ft | 490 kts | 120° |
| 2026-05-05 19:04 | 22.12746 | -72.09964 | 37047 ft | 490 kts | 120° |
| 2026-05-05 19:05 | 22.09465 | -72.03525 | 37048 ft | 490 kts | 120° |
| 2026-05-05 19:05 | 22.06171 | -71.97069 | 37051 ft | 493 kts | 120° |
| 2026-05-05 19:06 | 22.02870 | -71.90608 | 37041 ft | 493 kts | 120° |
| 2026-05-05 19:06 | 21.99560 | -71.84136 | 37043 ft | 491 kts | 120° |
| 2026-05-05 19:07 | 21.96262 | -71.77696 | 37045 ft | 491 kts | 120° |
| 2026-05-05 19:07 | 21.92961 | -71.71259 | 37042 ft | 491 kts | 120° |
| 2026-05-05 19:08 | 21.89663 | -71.64833 | 37047 ft | 491 kts | 120° |
| 2026-05-05 19:08 | 21.86357 | -71.58399 | 37044 ft | 491 kts | 120° |
| 2026-05-05 19:09 | 21.83046 | -71.51963 | 37051 ft | 489 kts | 120° |
| 2026-05-05 19:09 | 21.79759 | -71.45580 | 37049 ft | 489 kts | 121° |
| 2026-05-05 19:10 | 21.76459 | -71.39182 | 37049 ft | 489 kts | 121° |
| 2026-05-05 19:10 | 21.73159 | -71.32790 | 37050 ft | 489 kts | 121° |
| 2026-05-05 19:11 | 21.69855 | -71.26398 | 37043 ft | 489 kts | 121° |
| 2026-05-05 19:11 | 21.66556 | -71.20022 | 37039 ft | 488 kts | 121° |
| 2026-05-05 19:12 | 21.63249 | -71.13640 | 37047 ft | 488 kts | 121° |
| 2026-05-05 19:12 | 21.59967 | -71.07313 | 37047 ft | 488 kts | 121° |
| 2026-05-05 19:13 | 21.56458 | -71.01079 | 37061 ft | 486 kts | 126° |
| 2026-05-05 19:13 | 21.52661 | -70.95070 | 37038 ft | 487 kts | 126° |
| 2026-05-05 19:14 | 21.48843 | -70.89063 | 37050 ft | 487 kts | 126° |
| 2026-05-05 19:14 | 21.45030 | -70.83073 | 37045 ft | 485 kts | 127° |
| 2026-05-05 19:15 | 21.41232 | -70.77113 | 37049 ft | 484 kts | 127° |
| 2026-05-05 19:15 | 21.37426 | -70.71146 | 37048 ft | 484 kts | 127° |
| 2026-05-05 19:16 | 21.33616 | -70.65180 | 37045 ft | 484 kts | 127° |
| 2026-05-05 19:16 | 21.29829 | -70.59256 | 37041 ft | 484 kts | 127° |
| 2026-05-05 19:17 | 21.26018 | -70.53302 | 37048 ft | 485 kts | 127° |
| 2026-05-05 19:17 | 21.22197 | -70.47336 | 37042 ft | 484 kts | 127° |
| 2026-05-05 19:18 | 21.18380 | -70.41385 | 37051 ft | 484 kts | 127° |
| 2026-05-05 19:18 | 21.14561 | -70.35437 | 37050 ft | 484 kts | 127° |
| 2026-05-05 19:19 | 21.10748 | -70.29503 | 37045 ft | 484 kts | 127° |
| 2026-05-05 19:19 | 21.06924 | -70.23560 | 37047 ft | 484 kts | 127° |
| 2026-05-05 19:20 | 21.03125 | -70.17662 | 37052 ft | 484 kts | 127° |
| 2026-05-05 19:20 | 20.99305 | -70.11737 | 37047 ft | 483 kts | 127° |
| 2026-05-05 19:21 | 20.95494 | -70.05832 | 37048 ft | 483 kts | 127° |
| 2026-05-05 19:21 | 20.91674 | -69.99920 | 37048 ft | 483 kts | 127° |
| 2026-05-05 19:22 | 20.87848 | -69.94003 | 37048 ft | 484 kts | 127° |
| 2026-05-05 19:22 | 20.84023 | -69.88095 | 37046 ft | 484 kts | 127° |
| 2026-05-05 19:23 | 20.80193 | -69.82186 | 37048 ft | 483 kts | 127° |
| 2026-05-05 19:23 | 20.76360 | -69.76277 | 37048 ft | 483 kts | 128° |
| 2026-05-05 19:24 | 20.72528 | -69.70377 | 37048 ft | 483 kts | 128° |
| 2026-05-05 19:24 | 20.68731 | -69.64537 | 37050 ft | 483 kts | 128° |
| 2026-05-05 19:25 | 20.64897 | -69.58645 | 37050 ft | 483 kts | 128° |
| 2026-05-05 19:25 | 20.61062 | -69.52757 | 37049 ft | 483 kts | 128° |
| 2026-05-05 19:26 | 20.57227 | -69.46876 | 37051 ft | 483 kts | 128° |
| 2026-05-05 19:26 | 20.53397 | -69.41009 | 37051 ft | 483 kts | 128° |
| 2026-05-05 19:27 | 20.50177 | -69.36082 | 37039 ft | 483 kts | 128° |
| 2026-05-05 19:27 | 20.46329 | -69.30197 | 37053 ft | 484 kts | 128° |
| 2026-05-05 19:28 | 20.42506 | -69.24358 | 37054 ft | 483 kts | 128° |
| 2026-05-05 19:28 | 20.38661 | -69.18490 | 37053 ft | 483 kts | 129° |
| 2026-05-05 19:29 | 20.34805 | -69.12612 | 37053 ft | 484 kts | 128° |
| 2026-05-05 19:29 | 20.30951 | -69.06743 | 37053 ft | 484 kts | 129° |
| 2026-05-05 19:30 | 20.27102 | -69.00886 | 37055 ft | 483 kts | 129° |
| 2026-05-05 19:30 | 20.23241 | -68.95019 | 37056 ft | 483 kts | 129° |
| 2026-05-05 19:31 | 20.19383 | -68.89159 | 37056 ft | 483 kts | 129° |
| 2026-05-05 19:31 | 20.15521 | -68.83300 | 37053 ft | 483 kts | 129° |
| 2026-05-05 19:32 | 20.11664 | -68.77454 | 37056 ft | 484 kts | 129° |
| 2026-05-05 19:32 | 20.07830 | -68.71562 | 37055 ft | 485 kts | 127° |
| 2026-05-05 19:33 | 20.04168 | -68.65608 | 37059 ft | 485 kts | 127° |
| 2026-05-05 19:33 | 20.00459 | -68.59620 | 37059 ft | 484 kts | 127° |
| 2026-05-05 19:34 | 19.96754 | -68.53647 | 37059 ft | 484 kts | 127° |
| 2026-05-05 19:35 | 19.91187 | -68.44684 | 37058 ft | 484 kts | 127° |
| 2026-05-05 19:35 | 19.87478 | -68.38719 | 37056 ft | 484 kts | 128° |
| 2026-05-05 19:36 | 19.83770 | -68.32762 | 37059 ft | 484 kts | 128° |
| 2026-05-05 19:36 | 19.80057 | -68.26804 | 37059 ft | 484 kts | 128° |
| 2026-05-05 19:37 | 19.76343 | -68.20848 | 37060 ft | 484 kts | 128° |
| 2026-05-05 19:37 | 19.72629 | -68.14900 | 37054 ft | 483 kts | 128° |
| 2026-05-05 19:38 | 19.68951 | -68.09015 | 37059 ft | 483 kts | 128° |
| 2026-05-05 19:38 | 19.65237 | -68.03078 | 37058 ft | 483 kts | 128° |
| 2026-05-05 19:39 | 19.61522 | -67.97146 | 37059 ft | 483 kts | 128° |
| 2026-05-05 19:39 | 19.57804 | -67.91213 | 37058 ft | 483 kts | 128° |
| 2026-05-05 19:40 | 19.54087 | -67.85289 | 37061 ft | 483 kts | 128° |
| 2026-05-05 19:40 | 19.50365 | -67.79361 | 37059 ft | 483 kts | 128° |
| 2026-05-05 19:41 | 19.46643 | -67.73434 | 37059 ft | 483 kts | 128° |
| 2026-05-05 19:41 | 19.42931 | -67.67527 | 37058 ft | 483 kts | 128° |
| 2026-05-05 19:42 | 19.39205 | -67.61603 | 37058 ft | 483 kts | 128° |
| 2026-05-05 19:42 | 19.35481 | -67.55688 | 37058 ft | 483 kts | 128° |
| 2026-05-05 19:43 | 19.31777 | -67.49810 | 37055 ft | 482 kts | 128° |
| 2026-05-05 19:43 | 19.28059 | -67.43917 | 37057 ft | 482 kts | 128° |
| 2026-05-05 19:44 | 19.24332 | -67.38015 | 37066 ft | 482 kts | 128° |
| 2026-05-05 19:44 | 19.20604 | -67.32117 | 37064 ft | 482 kts | 128° |
| 2026-05-05 19:45 | 19.16873 | -67.26219 | 37051 ft | 482 kts | 128° |
| 2026-05-05 19:45 | 19.13149 | -67.20337 | 37054 ft | 482 kts | 128° |
| 2026-05-05 19:46 | 19.09417 | -67.14451 | 37061 ft | 482 kts | 128° |
| 2026-05-05 19:46 | 19.05681 | -67.08563 | 37047 ft | 482 kts | 128° |
| 2026-05-05 19:47 | 19.01952 | -67.02692 | 37044 ft | 482 kts | 128° |
| 2026-05-05 19:47 | 18.98216 | -66.96814 | 37053 ft | 482 kts | 128° |
| 2026-05-05 19:48 | 18.94478 | -66.90939 | 37037 ft | 481 kts | 127° |
| 2026-05-05 19:48 | 18.90743 | -66.85075 | 37039 ft | 480 kts | 127° |
| 2026-05-05 19:49 | 18.87022 | -66.79238 | 37040 ft | 480 kts | 127° |
| 2026-05-05 19:49 | 18.83289 | -66.73387 | 37038 ft | 480 kts | 127° |
| 2026-05-05 19:50 | 18.79560 | -66.67547 | 37038 ft | 480 kts | 127° |
| 2026-05-05 19:50 | 18.76380 | -66.61407 | 37012 ft | 485 kts | 107° |
| 2026-05-05 19:50 | 18.75826 | -66.57859 | 37050 ft | 488 kts | 96° |
| 2026-05-05 19:51 | 18.75541 | -66.54319 | 37021 ft | 491 kts | 96° |
| 2026-05-05 19:51 | 18.75012 | -66.47130 | 37035 ft | 492 kts | 95° |
| 2026-05-05 19:52 | 18.74528 | -66.39942 | 37033 ft | 491 kts | 95° |
| 2026-05-05 19:52 | 18.74046 | -66.32751 | 37037 ft | 492 kts | 95° |
| 2026-05-05 19:53 | 18.73563 | -66.25573 | 37040 ft | 491 kts | 95° |
| 2026-05-05 19:53 | 18.73075 | -66.18381 | 37044 ft | 491 kts | 95° |
| 2026-05-05 19:54 | 18.72586 | -66.11196 | 37042 ft | 491 kts | 95° |
| 2026-05-05 19:54 | 18.72095 | -66.04023 | 37043 ft | 491 kts | 95° |
| 2026-05-05 19:55 | 18.71599 | -65.96833 | 37058 ft | 491 kts | 95° |
| 2026-05-05 19:55 | 18.71101 | -65.89651 | 37053 ft | 491 kts | 95° |
| 2026-05-05 19:56 | 18.70601 | -65.82470 | 37059 ft | 490 kts | 95° |
| 2026-05-05 19:56 | 18.70099 | -65.75310 | 37058 ft | 491 kts | 95° |
| 2026-05-05 19:57 | 18.69594 | -65.68136 | 37064 ft | 491 kts | 96° |
| 2026-05-05 19:57 | 18.69086 | -65.60965 | 37060 ft | 490 kts | 95° |
| 2026-05-05 19:58 | 18.68576 | -65.53801 | 37063 ft | 489 kts | 95° |
| 2026-05-05 19:58 | 18.68065 | -65.46662 | 37009 ft | 488 kts | 95° |
| 2026-05-05 19:58 | 18.67810 | -65.43114 | 36460 ft | 485 kts | 95° |
| 2026-05-05 19:59 | 18.67555 | -65.39559 | 35518 ft | 492 kts | 95° |
| 2026-05-05 19:59 | 18.67201 | -65.35948 | 34560 ft | 498 kts | 102° |
| 2026-05-05 19:59 | 18.66541 | -65.32348 | 33566 ft | 498 kts | 101° |
| 2026-05-05 19:59 | 18.65930 | -65.28769 | 32587 ft | 493 kts | 101° |
| 2026-05-05 20:00 | 18.65348 | -65.25245 | 31677 ft | 487 kts | 101° |
| 2026-05-05 20:00 | 18.64778 | -65.21750 | 30789 ft | 481 kts | 101° |
| 2026-05-05 20:00 | 18.64224 | -65.18343 | 29925 ft | 475 kts | 101° |
| 2026-05-05 20:00 | 18.63664 | -65.14891 | 28966 ft | 468 kts | 101° |
| 2026-05-05 20:01 | 18.63126 | -65.11590 | 28361 ft | 456 kts | 101° |
| 2026-05-05 20:01 | 18.62594 | -65.08321 | 28008 ft | 438 kts | 101° |
| 2026-05-05 20:01 | 18.62087 | -65.05210 | 27588 ft | 424 kts | 101° |
| 2026-05-05 20:01 | 18.61593 | -65.02186 | 27155 ft | 412 kts | 101° |
| 2026-05-05 20:02 | 18.61121 | -64.99297 | 26743 ft | 402 kts | 101° |
| 2026-05-05 20:02 | 18.60653 | -64.96439 | 26345 ft | 391 kts | 101° |
| 2026-05-05 20:02 | 18.60197 | -64.93651 | 25948 ft | 381 kts | 101° |
| 2026-05-05 20:02 | 18.59746 | -64.90903 | 25581 ft | 379 kts | 101° |
| 2026-05-05 20:03 | 18.59298 | -64.88167 | 25188 ft | 379 kts | 101° |
| 2026-05-05 20:03 | 18.58856 | -64.85477 | 24815 ft | 378 kts | 101° |
| 2026-05-05 20:03 | 18.58400 | -64.82706 | 24423 ft | 377 kts | 101° |
| 2026-05-05 20:03 | 18.57953 | -64.79985 | 24051 ft | 376 kts | 101° |
| 2026-05-05 20:04 | 18.57506 | -64.77269 | 23679 ft | 376 kts | 101° |
| 2026-05-05 20:04 | 18.57059 | -64.74559 | 23224 ft | 375 kts | 101° |
| 2026-05-05 20:04 | 18.56614 | -64.71864 | 22826 ft | 373 kts | 101° |
| 2026-05-05 20:04 | 18.56171 | -64.69179 | 22448 ft | 370 kts | 101° |
| 2026-05-05 20:05 | 18.55734 | -64.66531 | 22086 ft | 363 kts | 100° |
| 2026-05-05 20:05 | 18.55304 | -64.63932 | 21723 ft | 356 kts | 100° |
| 2026-05-05 20:05 | 18.54888 | -64.61414 | 21375 ft | 351 kts | 100° |
| 2026-05-05 20:05 | 18.54470 | -64.58894 | 21035 ft | 350 kts | 100° |
| 2026-05-05 20:06 | 18.54048 | -64.56349 | 20682 ft | 355 kts | 100° |
| 2026-05-05 20:06 | 18.53621 | -64.53771 | 20321 ft | 358 kts | 99° |
| 2026-05-05 20:06 | 18.53191 | -64.51189 | 19967 ft | 358 kts | 99° |
| 2026-05-05 20:06 | 18.52763 | -64.48613 | 19604 ft | 357 kts | 99° |
| 2026-05-05 20:07 | 18.52338 | -64.46051 | 19253 ft | 356 kts | 99° |
| 2026-05-05 20:07 | 18.51911 | -64.43490 | 18890 ft | 355 kts | 99° |
| 2026-05-05 20:07 | 18.51484 | -64.40926 | 18487 ft | 356 kts | 98° |
| 2026-05-05 20:07 | 18.51057 | -64.38363 | 18060 ft | 356 kts | 98° |
| 2026-05-05 20:08 | 18.50628 | -64.35799 | 17672 ft | 354 kts | 99° |
| 2026-05-05 20:08 | 18.50202 | -64.33248 | 17310 ft | 352 kts | 99° |
| 2026-05-05 20:08 | 18.49777 | -64.30712 | 16945 ft | 350 kts | 98° |
| 2026-05-05 20:08 | 18.49355 | -64.28188 | 16585 ft | 348 kts | 99° |
| 2026-05-05 20:09 | 18.48936 | -64.25683 | 16235 ft | 346 kts | 99° |
| 2026-05-05 20:09 | 18.48518 | -64.23193 | 15881 ft | 345 kts | 99° |
| 2026-05-05 20:09 | 18.48103 | -64.20722 | 15531 ft | 343 kts | 99° |
| 2026-05-05 20:09 | 18.47688 | -64.18251 | 15179 ft | 341 kts | 99° |
| 2026-05-05 20:10 | 18.47276 | -64.15798 | 14822 ft | 340 kts | 99° |
| 2026-05-05 20:10 | 18.46863 | -64.13347 | 14475 ft | 338 kts | 100° |
| 2026-05-05 20:10 | 18.46454 | -64.10918 | 14142 ft | 336 kts | 100° |
| 2026-05-05 20:10 | 18.46045 | -64.08492 | 13777 ft | 335 kts | 100° |
| 2026-05-05 20:11 | 18.45639 | -64.06082 | 13391 ft | 332 kts | 100° |
| 2026-05-05 20:11 | 18.45242 | -64.03727 | 13023 ft | 321 kts | 100° |
| 2026-05-05 20:11 | 18.44859 | -64.01455 | 12702 ft | 309 kts | 100° |
| 2026-05-05 20:11 | 18.44488 | -63.99264 | 12389 ft | 298 kts | 100° |
| 2026-05-05 20:12 | 18.44130 | -63.97150 | 12084 ft | 289 kts | 100° |
| 2026-05-05 20:12 | 18.43782 | -63.95090 | 11797 ft | 289 kts | 100° |
| 2026-05-05 20:12 | 18.43423 | -63.92971 | 11510 ft | 297 kts | 100° |
| 2026-05-05 20:12 | 18.43181 | -63.91544 | 11300 ft | 300 kts | 100° |
| 2026-05-05 20:13 | 18.42814 | -63.89375 | 10979 ft | 301 kts | 100° |
| 2026-05-05 20:13 | 18.42445 | -63.87205 | 10664 ft | 301 kts | 100° |
| 2026-05-05 20:13 | 18.42077 | -63.85033 | 10350 ft | 300 kts | 100° |
| 2026-05-05 20:13 | 18.41595 | -63.82199 | 10094 ft | 292 kts | 100° |
| 2026-05-05 20:14 | 18.41355 | -63.80784 | 9944 ft | 289 kts | 101° |
| 2026-05-05 20:14 | 18.41001 | -63.78705 | 9617 ft | 288 kts | 100° |
| 2026-05-05 20:14 | 18.40649 | -63.76637 | 9285 ft | 286 kts | 100° |
| 2026-05-05 20:14 | 18.40303 | -63.74604 | 8983 ft | 285 kts | 101° |
| 2026-05-05 20:15 | 18.39951 | -63.72537 | 8681 ft | 283 kts | 101° |
| 2026-05-05 20:15 | 18.39607 | -63.70518 | 8385 ft | 280 kts | 101° |
| 2026-05-05 20:15 | 18.39268 | -63.68532 | 8092 ft | 278 kts | 101° |
| 2026-05-05 20:15 | 18.38620 | -63.66650 | 8032 ft | 268 kts | 125° |
| 2026-05-05 20:16 | 18.37381 | -63.65222 | 8025 ft | 268 kts | 135° |
| 2026-05-05 20:16 | 18.36049 | -63.63853 | 7997 ft | 267 kts | 136° |
| 2026-05-05 20:16 | 18.34705 | -63.62488 | 7971 ft | 269 kts | 136° |
| 2026-05-05 20:16 | 18.33340 | -63.61115 | 7613 ft | 274 kts | 136° |
| 2026-05-05 20:17 | 18.31950 | -63.59725 | 7202 ft | 276 kts | 136° |
| 2026-05-05 20:17 | 18.30552 | -63.58333 | 6817 ft | 274 kts | 136° |
| 2026-05-05 20:17 | 18.29192 | -63.56981 | 6539 ft | 263 kts | 136° |
| 2026-05-05 20:17 | 18.27890 | -63.55687 | 6327 ft | 254 kts | 136° |
| 2026-05-05 20:18 | 18.26598 | -63.54406 | 6134 ft | 256 kts | 135° |
| 2026-05-05 20:18 | 18.25305 | -63.53124 | 5953 ft | 255 kts | 136° |
| 2026-05-05 20:18 | 18.24050 | -63.51878 | 5846 ft | 240 kts | 135° |
| 2026-05-05 20:18 | 18.22872 | -63.50711 | 5654 ft | 227 kts | 136° |
| 2026-05-05 20:19 | 18.21750 | -63.49599 | 5465 ft | 216 kts | 136° |
| 2026-05-05 20:19 | 18.20694 | -63.48553 | 5299 ft | 206 kts | 136° |
| 2026-05-05 20:19 | 18.19664 | -63.47531 | 5130 ft | 195 kts | 135° |
| 2026-05-05 20:19 | 18.18716 | -63.46593 | 4986 ft | 184 kts | 135° |
| 2026-05-05 20:20 | 18.17810 | -63.45695 | 4835 ft | 173 kts | 136° |
| 2026-05-05 20:20 | 18.16954 | -63.44846 | 4692 ft | 168 kts | 136° |
| 2026-05-05 20:20 | 18.16097 | -63.43997 | 4593 ft | 170 kts | 136° |
| 2026-05-05 20:20 | 18.15203 | -63.43112 | 4510 ft | 184 kts | 135° |
| 2026-05-05 20:21 | 18.14233 | -63.42152 | 4316 ft | 197 kts | 135° |
| 2026-05-05 20:21 | 18.13222 | -63.41152 | 4097 ft | 202 kts | 135° |
| 2026-05-05 20:21 | 18.12198 | -63.40138 | 3874 ft | 202 kts | 135° |
| 2026-05-05 20:21 | 18.11177 | -63.39128 | 3650 ft | 201 kts | 135° |
| 2026-05-05 20:22 | 18.10159 | -63.38121 | 3429 ft | 200 kts | 135° |
| 2026-05-05 20:22 | 18.09147 | -63.37120 | 3203 ft | 200 kts | 135° |
| 2026-05-05 20:22 | 18.08136 | -63.36120 | 2972 ft | 199 kts | 135° |
| 2026-05-05 20:22 | 18.07129 | -63.35126 | 2757 ft | 198 kts | 135° |
| 2026-05-05 20:23 | 18.06135 | -63.34141 | 2613 ft | 195 kts | 136° |
| 2026-05-05 20:23 | 18.05145 | -63.33164 | 2584 ft | 196 kts | 136° |
| 2026-05-05 20:23 | 18.04155 | -63.32185 | 2582 ft | 197 kts | 136° |
| 2026-05-05 20:23 | 18.03160 | -63.31201 | 2597 ft | 191 kts | 136° |
| 2026-05-05 20:24 | 18.02253 | -63.30291 | 2572 ft | 177 kts | 130° |
| 2026-05-05 20:24 | 18.01766 | -63.29148 | 2613 ft | 175 kts | 98° |
| 2026-05-05 20:24 | 18.01802 | -63.27865 | 2594 ft | 177 kts | 86° |
| 2026-05-05 20:24 | 18.01940 | -63.26579 | 2362 ft | 177 kts | 85° |
| 2026-05-05 20:25 | 18.02095 | -63.25300 | 2154 ft | 175 kts | 85° |
| 2026-05-05 20:25 | 18.02245 | -63.24056 | 1945 ft | 168 kts | 85° |
| 2026-05-05 20:25 | 18.02383 | -63.22886 | 1789 ft | 151 kts | 85° |
| 2026-05-05 20:25 | 18.02528 | -63.21854 | 1686 ft | 139 kts | 85° |
| 2026-05-05 20:26 | 18.02670 | -63.20860 | 1635 ft | 137 kts | 83° |
| 2026-05-05 20:26 | 18.02812 | -63.19865 | 1681 ft | 138 kts | 83° |
| 2026-05-05 20:26 | 18.02958 | -63.18863 | 1686 ft | 140 kts | 85° |
| 2026-05-05 20:26 | 18.03102 | -63.17840 | 1692 ft | 139 kts | 84° |
| 2026-05-05 20:27 | 18.03244 | -63.16840 | 1695 ft | 138 kts | 84° |
| 2026-05-05 20:27 | 18.03418 | -63.15860 | 1414 ft | 138 kts | 81° |
| 2026-05-05 20:27 | 18.03552 | -63.14845 | 865 ft | 142 kts | 85° |
| 2026-05-05 20:27 | 18.03684 | -63.13852 | 497 ft | 135 kts | 85° |
| 2026-05-05 20:28 | 18.03812 | -63.12886 | 268 ft | 131 kts | 85° |
| 2026-05-05 20:28 | 18.03945 | -63.11926 | 71 ft | 133 kts | 84° |
| 2026-05-05 20:28 | 18.04061 | -63.11101 | 30 ft | 83 kts | 81° |
| 2026-05-05 20:28 | 18.04124 | -63.10665 | 30 ft | 55 kts | 81° |
| 2026-05-05 20:29 | 18.04148 | -63.10493 | 30 ft | 5 kts | 321° |
| 2026-05-05 20:29 | 18.04145 | -63.10543 | 30 ft | 13 kts | 258° |
| 2026-05-05 20:29 | 18.04116 | -63.10682 | 30 ft | 27 kts | 258° |
| 2026-05-05 20:29 | 18.04096 | -63.10859 | 30 ft | 24 kts | 265° |
| 2026-05-05 20:30 | 18.04071 | -63.11040 | 30 ft | 26 kts | 261° |
| 2026-05-05 20:30 | 18.04111 | -63.11162 | 30 ft | 13 kts | 338° |
| 2026-05-05 20:30 | 18.04141 | -63.11219 | 31 ft | 11 kts | 264° |
| 2026-05-05 20:30 | 18.04151 | -63.11299 | 31 ft | 12 kts | 326° |
| 2026-05-05 20:31 | 18.04239 | -63.11310 | 31 ft | 14 kts | 13° |
| 2026-05-05 20:31 | 18.04310 | -63.11292 | 31 ft | 3 kts | 352° |
| 2026-05-05 20:31 | 18.04332 | -63.11295 | 31 ft | 1 kts | 353° |
| 2026-05-05 20:31 | 18.04334 | -63.11295 | 31 ft | 0 kts | 352° |